createdAt,value
2022-10-28T00:01:25.788Z,95.50
2022-10-28T00:03:58.695Z,95.50
2022-10-28T00:06:35.429Z,95.40
2022-10-28T00:09:05.633Z,95.40
2022-10-28T00:11:35.576Z,95.50
2022-10-28T00:14:05.435Z,95.40
2022-10-28T00:16:35.486Z,95.40
2022-10-28T00:19:04.141Z,95.40
2022-10-28T00:21:34.364Z,95.50
2022-10-28T00:24:01.314Z,95.40
2022-10-28T00:26:33.837Z,95.30
2022-10-28T00:29:13.438Z,95.40
2022-10-28T00:31:41.024Z,95.40
2022-10-28T00:34:13.165Z,95.40
2022-10-28T00:36:43.917Z,95.40
2022-10-28T00:39:20.216Z,95.40
2022-10-28T00:41:57.006Z,95.40
2022-10-28T00:44:54.701Z,95.40
2022-10-28T00:47:52.516Z,95.40
2022-10-28T00:50:58.225Z,95.40
2022-10-28T00:53:29.792Z,95.40
2022-10-28T00:56:00.538Z,95.30
2022-10-28T00:58:27.971Z,95.30
2022-10-28T01:00:55.263Z,95.20
2022-10-28T01:03:22.579Z,95.20
2022-10-28T01:05:51.616Z,95.20
2022-10-28T01:08:18.755Z,95.20
2022-10-28T01:11:29.150Z,95.20
2022-10-28T01:14:10.932Z,95.20
2022-10-28T01:17:17.231Z,95.10
2022-10-28T01:20:25.672Z,95.20
2022-10-28T01:23:33.510Z,95.20
2022-10-28T01:26:16.854Z,95.30
2022-10-28T01:29:26.483Z,95.40
2022-10-28T01:31:54.996Z,95.40
2022-10-28T01:34:36.034Z,95.30
2022-10-28T01:37:34.818Z,95.50
2022-10-28T01:40:28.220Z,95.50
2022-10-28T01:43:13.105Z,95.50
2022-10-28T01:45:53.202Z,95.50
2022-10-28T01:48:42.934Z,95.40
2022-10-28T01:51:37.033Z,95.40
2022-10-28T01:54:07.857Z,95.50
2022-10-28T01:56:41.455Z,95.40
2022-10-28T01:59:13.717Z,95.50
2022-10-28T02:01:40.706Z,95.60
2022-10-28T02:04:07.913Z,95.50
2022-10-28T02:06:36.986Z,95.50
2022-10-28T02:09:30.347Z,95.50
2022-10-28T02:12:18.552Z,95.60
2022-10-28T02:14:58.422Z,95.50
2022-10-28T02:17:55.970Z,95.50
2022-10-28T02:21:05.860Z,95.70
2022-10-28T02:24:08.570Z,95.70
2022-10-28T02:26:42.854Z,95.80
2022-10-28T02:29:45.807Z,95.80
2022-10-28T02:32:20.810Z,95.80
2022-10-28T02:34:54.095Z,95.80
2022-10-28T02:37:33.748Z,95.80
2022-10-28T02:40:07.326Z,95.90
2022-10-28T02:42:51.398Z,95.70
2022-10-28T02:45:34.055Z,95.70
2022-10-28T02:48:16.464Z,95.70
2022-10-28T02:50:51.679Z,95.70
2022-10-28T02:53:31.364Z,95.70
2022-10-28T02:56:01.834Z,95.70
2022-10-28T02:58:29.147Z,95.70
2022-10-28T03:00:56.066Z,95.80
2022-10-28T03:03:23.000Z,95.90
2022-10-28T03:05:49.881Z,95.90
2022-10-28T03:08:16.803Z,95.90
2022-10-28T03:10:43.668Z,95.90
2022-10-28T03:13:10.547Z,96.00
2022-10-28T03:15:37.408Z,96.00
2022-10-28T03:18:04.365Z,96.00
2022-10-28T03:20:31.372Z,96.00
2022-10-28T03:22:58.252Z,96.00
2022-10-28T03:25:25.120Z,96.00
2022-10-28T03:27:51.999Z,96.00
2022-10-28T03:30:19.069Z,96.00
2022-10-28T03:32:46.076Z,96.10
2022-10-28T03:35:13.055Z,96.10
2022-10-28T03:37:43.750Z,96.20
2022-10-28T03:40:12.045Z,96.20
2022-10-28T03:42:41.877Z,96.30
2022-10-28T03:45:09.624Z,96.40
2022-10-28T03:47:36.777Z,96.50
2022-10-28T03:50:03.973Z,96.60
2022-10-28T03:52:30.872Z,96.70
2022-10-28T03:54:57.729Z,96.80
2022-10-28T03:57:24.831Z,97.00
2022-10-28T03:59:51.697Z,97.00
2022-10-28T04:02:18.680Z,97.00
2022-10-28T04:04:45.690Z,97.10
2022-10-28T04:07:12.559Z,97.20
2022-10-28T04:09:39.434Z,97.20
2022-10-28T04:12:07.190Z,97.30
2022-10-28T04:14:34.047Z,97.40
2022-10-28T04:17:00.944Z,97.40
2022-10-28T04:19:27.895Z,97.40
2022-10-28T04:21:54.771Z,97.40
2022-10-28T04:24:21.739Z,97.30
2022-10-28T04:26:48.624Z,97.30
2022-10-28T04:29:15.517Z,97.30
2022-10-28T04:31:42.428Z,97.30
2022-10-28T04:34:09.295Z,97.30
2022-10-28T04:36:36.214Z,97.20
2022-10-28T04:39:03.311Z,97.20
2022-10-28T04:41:30.203Z,97.20
2022-10-28T04:43:57.108Z,97.20
2022-10-28T04:46:24.012Z,97.10
2022-10-28T04:48:50.892Z,97.10
2022-10-28T04:51:17.762Z,97.00
2022-10-28T04:53:44.659Z,97.00
2022-10-28T04:56:11.534Z,97.00
2022-10-28T04:58:38.386Z,97.00
2022-10-28T05:01:09.208Z,97.00
2022-10-28T05:03:36.554Z,97.00
2022-10-28T05:06:03.808Z,97.40
2022-10-28T05:08:30.686Z,97.00
2022-10-28T05:10:58.193Z,97.00
2022-10-28T05:13:25.083Z,97.00
2022-10-28T05:15:52.044Z,96.90
2022-10-28T05:18:19.163Z,97.00
2022-10-28T05:20:46.028Z,96.90
2022-10-28T05:23:13.025Z,96.80
2022-10-28T05:25:40.306Z,96.80
2022-10-28T05:28:07.187Z,96.80
2022-10-28T05:30:34.053Z,97.10
2022-10-28T05:33:04.877Z,96.80
2022-10-28T05:35:32.034Z,96.80
2022-10-28T05:37:58.993Z,96.70
2022-10-28T05:40:25.891Z,96.70
2022-10-28T05:42:53.150Z,96.60
2022-10-28T05:45:20.302Z,96.60
2022-10-28T05:47:48.712Z,96.60
2022-10-28T05:50:18.980Z,96.60
2022-10-28T05:52:51.554Z,96.60
2022-10-28T05:55:20.128Z,96.60
2022-10-28T05:57:48.476Z,96.50
2022-10-28T06:00:17.324Z,96.50
2022-10-28T06:02:44.354Z,96.50
2022-10-28T06:05:11.942Z,96.50
2022-10-28T06:07:40.384Z,96.50
2022-10-28T06:10:09.416Z,96.50
2022-10-28T06:12:34.990Z,96.40
2022-10-28T06:15:02.826Z,96.40
2022-10-28T06:17:29.856Z,96.40
2022-10-28T06:19:56.753Z,96.50
2022-10-28T06:22:23.657Z,96.50
2022-10-28T06:24:50.524Z,96.50
2022-10-28T06:27:17.401Z,96.50
2022-10-28T06:29:44.383Z,96.50
2022-10-28T06:32:11.282Z,96.50
2022-10-28T06:34:38.156Z,96.40
2022-10-28T06:37:05.715Z,96.40
2022-10-28T06:39:32.901Z,96.80
2022-10-28T06:41:59.993Z,96.40
2022-10-28T06:44:26.862Z,96.40
2022-10-28T06:46:56.263Z,96.40
2022-10-28T06:49:23.134Z,96.50
2022-10-28T06:51:50.092Z,96.60
2022-10-28T06:54:17.836Z,96.70
2022-10-28T06:56:47.361Z,96.70
2022-10-28T06:59:14.215Z,96.70
2022-10-28T07:01:41.388Z,96.70
2022-10-28T07:04:12.727Z,96.70
2022-10-28T07:06:40.775Z,96.80
2022-10-28T07:09:07.830Z,96.80
2022-10-28T07:11:34.689Z,96.80
2022-10-28T07:14:01.641Z,96.70
2022-10-28T07:16:28.523Z,96.80
2022-10-28T07:18:55.368Z,96.80
2022-10-28T07:21:25.678Z,96.80
2022-10-28T07:23:52.548Z,96.80
2022-10-28T07:26:19.393Z,96.70
2022-10-28T07:28:46.286Z,96.70
2022-10-28T07:31:13.211Z,96.80
2022-10-28T07:33:40.062Z,96.70
2022-10-28T07:36:08.028Z,96.80
2022-10-28T07:38:34.944Z,96.80
2022-10-28T07:41:06.957Z,96.70
2022-10-28T07:43:40.265Z,96.70
2022-10-28T07:46:08.080Z,96.70
2022-10-28T07:48:36.577Z,96.70
2022-10-28T07:51:06.326Z,96.50
2022-10-28T07:53:33.921Z,96.50
2022-10-28T07:56:04.695Z,96.40
2022-10-28T07:58:31.559Z,96.30
2022-10-28T08:01:06.887Z,96.30
2022-10-28T08:03:38.748Z,96.30
2022-10-28T08:06:10.376Z,96.30
2022-10-28T08:08:38.178Z,96.30
2022-10-28T08:11:16.697Z,96.40
2022-10-28T08:13:43.561Z,96.50
2022-10-28T08:16:10.679Z,96.50
2022-10-28T08:18:38.889Z,96.50
2022-10-28T08:21:09.094Z,96.40
2022-10-28T08:23:38.305Z,96.30
2022-10-28T08:26:05.916Z,96.30
2022-10-28T08:28:32.831Z,96.40
2022-10-28T08:31:08.645Z,96.30
2022-10-28T08:33:42.613Z,96.20
2022-10-28T08:36:13.171Z,96.10
2022-10-28T08:38:45.193Z,96.00
2022-10-28T08:41:34.038Z,95.90
2022-10-28T08:44:28.285Z,95.70
2022-10-28T08:47:16.679Z,95.50
2022-10-28T08:49:49.227Z,95.50
2022-10-28T08:52:24.784Z,95.60
2022-10-28T08:55:22.241Z,95.60
2022-10-28T08:58:21.607Z,95.50
2022-10-28T09:00:54.263Z,95.60
2022-10-28T09:03:34.317Z,95.70
2022-10-28T09:06:06.973Z,95.60
2022-10-28T09:08:42.594Z,95.60
2022-10-28T09:11:46.946Z,95.40
2022-10-28T09:14:49.408Z,95.20
2022-10-28T09:17:54.795Z,95.10
2022-10-28T09:20:53.340Z,95.00
2022-10-28T09:23:38.039Z,95.10
2022-10-28T09:26:35.978Z,95.10
2022-10-28T09:29:32.820Z,94.60
2022-10-28T09:32:20.823Z,94.60
2022-10-28T09:34:55.782Z,94.60
2022-10-28T09:37:29.397Z,94.40
2022-10-28T09:40:04.689Z,94.30
2022-10-28T09:45:19.444Z,94.10
2022-10-28T09:48:01.690Z,94.00
2022-10-28T09:50:32.669Z,94.10
2022-10-28T09:53:33.710Z,94.10
2022-10-28T09:56:04.672Z,93.80
2022-10-28T09:58:35.823Z,94.10
2022-10-28T10:01:04.870Z,94.10
2022-10-28T10:03:33.005Z,93.90
2022-10-28T10:06:11.530Z,93.60
2022-10-28T10:08:40.689Z,93.50
2022-10-28T10:11:31.514Z,93.60
2022-10-28T10:14:00.280Z,93.30
2022-10-28T10:16:42.453Z,93.20
2022-10-28T10:19:11.187Z,93.00
2022-10-28T10:21:47.592Z,93.10
2022-10-28T10:24:32.216Z,92.90
2022-10-28T10:27:18.742Z,92.90
2022-10-28T10:29:52.077Z,93.10
2022-10-28T10:32:23.292Z,93.40
2022-10-28T10:35:12.821Z,92.90
2022-10-28T10:37:45.818Z,92.60
2022-10-28T10:40:48.667Z,92.40
2022-10-28T10:43:18.268Z,92.00
2022-10-28T10:45:59.442Z,92.20
2022-10-28T10:48:27.662Z,92.00
2022-10-28T10:50:55.890Z,92.30
2022-10-28T10:53:26.381Z,91.90
2022-10-28T10:55:58.257Z,91.60
2022-10-28T10:58:30.657Z,91.40
2022-10-28T11:01:01.288Z,91.20
2022-10-28T11:03:31.991Z,91.20
2022-10-28T11:08:47.967Z,90.90
2022-10-28T11:11:21.677Z,90.90
2022-10-28T11:14:03.304Z,90.10
2022-10-28T11:16:30.232Z,90.30
2022-10-28T11:18:57.119Z,90.10
2022-10-28T11:21:48.024Z,90.50
2022-10-28T11:24:30.473Z,90.00
2022-10-28T11:28:04.085Z,90.00
2022-10-28T11:31:17.722Z,89.50
2022-10-28T11:33:51.245Z,89.40
2022-10-28T11:37:09.288Z,89.70
2022-10-28T11:40:05.363Z,90.10
2022-10-28T11:43:30.638Z,90.20
2022-10-28T11:46:37.655Z,90.20
2022-10-28T11:49:33.592Z,90.00
2022-10-28T11:52:12.088Z,89.70
2022-10-28T11:55:12.721Z,90.10
2022-10-28T11:58:05.107Z,89.20
2022-10-28T12:00:50.406Z,89.30
2022-10-28T12:03:40.903Z,90.00
2022-10-28T12:06:42.247Z,89.10
2022-10-28T12:09:30.129Z,89.10
2022-10-28T12:12:23.409Z,89.00
2022-10-28T12:15:15.794Z,89.30
2022-10-28T12:18:13.105Z,89.50
2022-10-28T12:20:53.274Z,89.10
2022-10-28T12:23:22.397Z,89.30
2022-10-28T12:25:55.460Z,88.80
2022-10-28T12:28:32.748Z,88.70
2022-10-28T12:31:00.919Z,87.60
2022-10-28T12:33:37.306Z,87.80
2022-10-28T12:36:04.033Z,86.90
2022-10-28T12:38:44.393Z,87.10
2022-10-28T12:41:21.449Z,85.50
2022-10-28T12:44:14.900Z,85.30
2022-10-28T12:47:03.241Z,84.10
2022-10-28T12:49:57.018Z,84.50
2022-10-28T12:53:01.194Z,83.70
2022-10-28T12:55:48.649Z,84.60
2022-10-28T12:58:27.353Z,84.20
2022-10-28T13:01:01.028Z,84.30
2022-10-28T13:03:27.961Z,84.30
2022-10-28T13:06:30.478Z,84.30
2022-10-28T13:09:15.390Z,84.00
2022-10-28T13:12:39.431Z,83.40
2022-10-28T13:15:55.617Z,83.40
2022-10-28T13:18:57.410Z,83.90
2022-10-28T13:22:09.379Z,83.20
2022-10-28T13:25:27.689Z,83.20
2022-10-28T13:27:59.311Z,83.00
2022-10-28T13:30:27.417Z,83.10
2022-10-28T13:33:06.190Z,82.20
2022-10-28T13:35:33.466Z,82.80
2022-10-28T13:38:02.611Z,82.90
2022-10-28T13:40:32.164Z,82.70
2022-10-28T13:43:00.854Z,83.20
2022-10-28T13:45:54.557Z,82.70
2022-10-28T13:48:30.525Z,82.30
2022-10-28T13:51:09.281Z,82.70
2022-10-28T13:53:45.194Z,82.60
2022-10-28T13:56:27.388Z,82.70
2022-10-28T13:58:59.107Z,82.40
2022-10-28T14:02:07.553Z,84.00
2022-10-28T14:04:43.894Z,83.30
2022-10-28T14:07:10.664Z,83.30
2022-10-28T14:09:41.133Z,83.60
2022-10-28T14:12:26.762Z,83.80
2022-10-28T14:15:14.144Z,83.20
2022-10-28T14:17:46.538Z,83.80
2022-10-28T14:20:31.219Z,83.80
2022-10-28T14:22:59.081Z,83.70
2022-10-28T14:25:40.931Z,84.10
2022-10-28T14:28:32.328Z,84.00
2022-10-28T14:31:08.267Z,83.80
2022-10-28T14:33:50.124Z,84.20
2022-10-28T14:36:19.958Z,84.10
2022-10-28T14:39:32.980Z,84.20
2022-10-28T14:42:30.687Z,84.20
2022-10-28T14:45:27.301Z,83.90
2022-10-28T14:48:26.673Z,84.30
2022-10-28T14:50:54.629Z,84.30
2022-10-28T14:53:35.555Z,84.50
2022-10-28T14:56:12.542Z,84.60
2022-10-28T14:58:44.419Z,84.60
2022-10-28T15:01:17.383Z,84.60
2022-10-28T15:04:04.272Z,84.70
2022-10-28T15:06:33.159Z,84.80
2022-10-28T15:09:29.190Z,84.90
2022-10-28T15:11:59.828Z,85.10
2022-10-28T15:14:33.210Z,85.20
2022-10-28T15:17:19.654Z,85.40
2022-10-28T15:19:50.045Z,85.60
2022-10-28T15:22:21.330Z,85.70
2022-10-28T15:24:59.194Z,85.90
2022-10-28T15:27:33.221Z,86.00
2022-10-28T15:30:00.619Z,86.10
2022-10-28T15:32:34.459Z,86.30
2022-10-28T15:35:27.207Z,86.50
2022-10-28T15:37:55.801Z,86.80
2022-10-28T15:40:32.503Z,86.80
2022-10-28T15:43:07.193Z,87.20
2022-10-28T15:45:41.208Z,87.50
2022-10-28T15:48:15.244Z,87.40
2022-10-28T15:50:42.254Z,87.70
2022-10-28T15:53:12.711Z,87.70
2022-10-28T15:58:44.459Z,88.10
2022-10-28T16:01:35.626Z,88.70
2022-10-28T16:04:02.633Z,89.30
2022-10-28T16:06:33.787Z,89.10
2022-10-28T16:09:04.346Z,89.40
2022-10-28T16:11:35.669Z,89.70
2022-10-28T16:14:18.246Z,89.90
2022-10-28T16:16:45.208Z,90.10
2022-10-28T16:19:29.000Z,90.10
2022-10-28T16:21:56.147Z,90.50
2022-10-28T16:24:23.030Z,90.50
2022-10-28T16:26:49.921Z,90.60
2022-10-28T16:29:16.795Z,90.70
2022-10-28T16:31:46.496Z,90.70
2022-10-28T16:34:14.895Z,90.70
2022-10-28T16:36:41.769Z,90.80
2022-10-28T16:39:13.011Z,90.80
2022-10-28T16:41:40.930Z,91.10
2022-10-28T16:44:18.488Z,91.10
2022-10-28T16:46:45.405Z,91.50
2022-10-28T16:49:12.263Z,91.30
2022-10-28T16:51:39.856Z,91.40
2022-10-28T16:54:07.535Z,91.50
2022-10-28T16:56:34.466Z,91.60
2022-10-28T16:59:01.347Z,92.10
2022-10-28T17:01:28.328Z,91.80
2022-10-28T17:03:55.234Z,91.90
2022-10-28T17:06:22.140Z,91.90
2022-10-28T17:09:02.317Z,91.90
2022-10-28T17:14:02.107Z,91.90
2022-10-28T17:16:29.032Z,92.00
2022-10-28T17:18:55.945Z,92.00
2022-10-28T17:21:22.872Z,92.00
2022-10-28T17:23:49.734Z,92.10
2022-10-28T17:26:16.614Z,92.20
2022-10-28T17:28:43.526Z,92.20
2022-10-28T17:31:10.761Z,92.30
2022-10-28T17:33:37.658Z,92.40
2022-10-28T17:36:07.838Z,92.40
2022-10-28T17:38:34.742Z,92.40
2022-10-28T17:41:02.015Z,92.40
2022-10-28T17:43:28.902Z,92.40
2022-10-28T17:46:06.467Z,92.40
2022-10-28T17:48:34.247Z,92.60
2022-10-28T17:51:01.170Z,92.50
2022-10-28T17:53:28.076Z,92.50
2022-10-28T17:55:59.310Z,92.60
2022-10-28T17:58:26.843Z,92.80
2022-10-28T18:01:02.924Z,92.70
2022-10-28T18:03:33.984Z,92.90
2022-10-28T18:06:07.249Z,92.80
2022-10-28T18:08:40.474Z,92.90
2022-10-28T18:11:09.904Z,93.00
2022-10-28T18:13:39.619Z,93.00
2022-10-28T18:16:09.622Z,93.10
2022-10-28T18:18:41.089Z,93.10
2022-10-28T18:21:11.683Z,93.50
2022-10-28T18:23:40.798Z,93.20
2022-10-28T18:26:12.465Z,93.20
2022-10-28T18:28:41.590Z,93.30
2022-10-28T18:31:15.366Z,93.30
2022-10-28T18:33:43.530Z,93.30
2022-10-28T18:36:22.317Z,93.30
2022-10-28T18:38:50.300Z,93.40
2022-10-28T18:41:21.003Z,93.40
2022-10-28T18:43:48.148Z,93.40
2022-10-28T18:46:15.037Z,93.40
2022-10-28T18:48:41.908Z,93.40
2022-10-28T18:51:12.149Z,93.40
2022-10-28T18:53:44.951Z,93.50
2022-10-28T18:56:17.811Z,93.70
2022-10-28T18:58:45.222Z,93.70
2022-10-28T19:01:15.413Z,93.60
2022-10-28T19:03:43.305Z,93.70
2022-10-28T19:06:16.356Z,93.70
2022-10-28T19:08:44.267Z,94.00
2022-10-28T19:11:13.469Z,93.80
2022-10-28T19:13:42.017Z,93.80
2022-10-28T19:16:09.854Z,93.80
2022-10-28T19:18:38.268Z,93.80
2022-10-28T19:21:10.596Z,93.80
2022-10-28T19:23:37.950Z,93.90
2022-10-28T19:26:06.734Z,94.00
2022-10-28T19:28:39.368Z,94.00
2022-10-28T19:31:10.406Z,94.00
2022-10-28T19:33:40.835Z,94.00
2022-10-28T19:36:19.937Z,94.40
2022-10-28T19:38:49.060Z,94.10
2022-10-28T19:41:19.286Z,94.10
2022-10-28T19:43:46.514Z,94.10
2022-10-28T19:46:17.019Z,94.20
2022-10-28T19:48:48.101Z,94.30
2022-10-28T19:51:19.679Z,94.30
2022-10-28T19:53:55.931Z,94.40
2022-10-28T19:56:23.146Z,94.50
2022-10-28T19:58:58.990Z,94.30
2022-10-28T20:01:30.111Z,94.40
2022-10-28T20:03:57.511Z,94.40
2022-10-28T20:06:27.397Z,94.30
2022-10-28T20:08:54.261Z,94.30
2022-10-28T20:11:33.672Z,94.30
2022-10-28T20:14:12.555Z,94.40
2022-10-28T20:16:42.797Z,94.40
2022-10-28T20:19:10.828Z,94.30
2022-10-28T20:21:38.326Z,94.30
2022-10-28T20:24:06.960Z,94.30
2022-10-28T20:26:36.434Z,94.20
2022-10-28T20:29:03.394Z,94.30
2022-10-28T20:31:31.845Z,94.20
2022-10-28T20:34:03.452Z,94.20
2022-10-28T20:36:34.230Z,94.20
2022-10-28T20:39:16.448Z,94.20
2022-10-28T20:41:45.574Z,94.20
2022-10-28T20:44:12.514Z,94.20
2022-10-28T20:46:39.534Z,94.20
2022-10-28T20:49:08.626Z,94.20
2022-10-28T20:51:36.101Z,94.20
2022-10-28T20:54:03.084Z,94.20
2022-10-28T20:56:33.607Z,94.20
2022-10-28T20:59:00.879Z,94.20
2022-10-28T21:01:32.437Z,94.20
2022-10-28T21:04:03.666Z,94.20
2022-10-28T21:06:31.021Z,94.20
2022-10-28T21:08:58.660Z,94.20
2022-10-28T21:11:27.484Z,94.20
2022-10-28T21:13:57.843Z,94.20
2022-10-28T21:16:26.273Z,94.20
2022-10-28T21:18:53.398Z,94.20
2022-10-28T21:21:22.562Z,94.20
2022-10-28T21:23:49.590Z,94.20
2022-10-28T21:26:17.180Z,94.20
2022-10-28T21:28:45.002Z,94.20
2022-10-28T21:31:14.972Z,94.20
2022-10-28T21:33:43.042Z,94.20
2022-10-28T21:36:15.862Z,94.20
2022-10-28T21:38:42.802Z,94.20
2022-10-28T21:41:20.813Z,94.20
2022-10-28T21:43:50.290Z,94.30
2022-10-28T21:46:19.191Z,94.20
2022-10-28T21:48:46.395Z,94.20
2022-10-28T21:51:15.658Z,94.20
2022-10-28T21:53:44.650Z,94.10
2022-10-28T21:56:17.630Z,94.10
2022-10-28T21:58:46.084Z,94.10
2022-10-28T22:01:22.798Z,94.00
2022-10-28T22:03:51.489Z,94.00
2022-10-28T22:06:18.432Z,94.00
2022-10-28T22:08:45.306Z,93.90
2022-10-28T22:11:18.472Z,93.90
2022-10-28T22:13:45.766Z,93.90
2022-10-28T22:16:15.949Z,93.90
2022-10-28T22:18:43.149Z,93.90
2022-10-28T22:21:20.180Z,93.90
2022-10-28T22:23:47.386Z,93.90
2022-10-28T22:26:20.425Z,94.00
2022-10-28T22:28:48.026Z,94.00
2022-10-28T22:31:18.345Z,93.90
2022-10-28T22:36:22.982Z,93.90
2022-10-28T22:38:50.265Z,93.90
2022-10-28T22:41:18.277Z,93.90
2022-10-28T22:43:52.024Z,93.90
2022-10-28T22:46:19.736Z,93.90
2022-10-28T22:48:47.199Z,93.90
2022-10-28T22:51:14.787Z,93.90
2022-10-28T22:53:42.017Z,93.90
2022-10-28T22:56:15.656Z,93.90
2022-10-28T22:58:42.826Z,93.90
2022-10-28T23:01:16.486Z,93.80
2022-10-28T23:03:45.979Z,93.80
2022-10-28T23:06:15.868Z,93.80
2022-10-28T23:08:44.878Z,93.70
2022-10-28T23:11:12.902Z,93.70
2022-10-28T23:13:40.123Z,93.70
2022-10-28T23:16:13.177Z,93.70
2022-10-28T23:18:41.014Z,93.70
2022-10-28T23:21:14.586Z,93.70
2022-10-28T23:23:42.927Z,94.10
2022-10-28T23:26:11.683Z,93.70
2022-10-28T23:28:38.994Z,93.70
2022-10-28T23:31:06.799Z,93.70
2022-10-28T23:33:35.028Z,93.70
2022-10-28T23:36:06.674Z,93.80
2022-10-28T23:38:33.702Z,93.80
2022-10-28T23:41:06.292Z,93.90
2022-10-28T23:43:33.750Z,93.90
2022-10-28T23:46:01.542Z,93.90
2022-10-28T23:48:29.463Z,94.00
2022-10-28T23:50:57.168Z,94.10
2022-10-28T23:53:24.825Z,94.10
2022-10-28T23:55:52.243Z,94.10
2022-10-28T23:58:21.730Z,94.10
